메인 페이지
METAR-TAF:

METAR-TAF

공항 :

하일, 사우디아라비아

위도: 27-26N, 경도: 041-41E, 고도: 1015m

현재 날씨관측

예보는 1 시간 10분 전, 08:00시(UTC)에 발표되었습니다.
북북동10kt
온도 32°C
습도 18%
기압 1017 hPa
시정 10km 이상
1500m 미만 상공 구름 및 적란운 없음

METAR: OEHL 040800Z 03010KT CAVOK 32/05 Q1017

시각: 12:10 (09:10 UTC)

예보

예보는 10 시간 10분 전, 23:00시(UTC)에 발표되었습니다.
예보 대상 시간: 04일 00시부터 05일 06시까지 (UTC)
14kt
시정: 6000m
전환 중
04일 06시부터 04일 08시까지 (UTC)
동북동12kt

TAF: OEHL 032300Z 0400/0506 35014KT 6000 NSC BECMG 0406/0408 06012KT

4,000개 이상의 공항 관측 자료 및 예보 (METAR 및 TAF 보고).

지도상에서 검색 가능한 기상관측소가 노란 점과 빨간 점으로 표시되어 있습니다.

기상관측소 명을 보려면 표시 위로 마우스를 이동하세요.

날씨 관측과 예보를 보려면 클릭하세요.

지도 변경 : 확대하려면 엑스 표시가 있는 녹색 버튼, 축소하려면 빼기 표시가 있는 녹색 버튼, 다음 페이지의 지도를 보려면 녹색 화살표를 클릭하세요.


METAR-TAF: